Newkirk, New Mexico
Current Conditions -  °F | °C
As of 8:53 AM on Friday 28 Nov 2014 (Local Time) from KTCC Reporting Station
Clear Clear  
Wind Chill: 60°   Ceiling: Unl
Heat Index: 60°   Visibility: 10mi
Dew Point: 21°   Wind: 20mph
Humidity: 22%   Direction: 280°W
Pressure: 30.07"   Gusts: NA
Location:  35.07°N, 104.27°W
Report Text: KTCC 281553Z AUTO 28017KT 10SM CLR 16/M06 A3007 RMK AO2 SLP155 T01561061
Loading
Personal Weather Stations






























Interactive Weather Map New forecast layout! Learn more

10-Day Weather Forecast

Advertisements
Track Severe Weather on mobile